Racecast

Mikylah Highley

Unattached (TX) · 8 · ODAC · Compare head to head

Athlete rating 117.2 2026 TF season
Best race 122.3 TF
Races 89
Seasons 3 2024 — 2026

RankedNation #13120·VA #206·Team #1537 ?

Rating scale ?
Speed rating — all races

Track & Field

TF speed rating

2026 TF 113.1

Unattached (TX) · Grade 8

Date Meet Event Result Place Rating Difficulty PR/SR Flags
2026-06-20 Legacy Juneteenth Track Showcase 800m 2:51.53 1st · 1st on team 117.3 -0.027 ★PR SR
2026-06-20 Legacy Juneteenth Track Showcase 1500m 5:38.51 1st · 1st on team 122.3 -0.027 ★PR ★R SR RSR
2026-06-14 AAU Virginia District Qualifier - North 800m 2:58.97 1st · 1st on team 111.8 -0.033
2026-06-14 AAU Virginia District Qualifier - North 1500m 5:58.05 1st · 1st on team 114.9 -0.033
2026-05-30 Va Beach Flames Invite 1500m 5:53.09 1st · 1st on team 117.7 -0.023
2026-05-30 Va Beach Flames Invite 800m 2:54.38 2nd · 1st on team 115.9 -0.023 PR SR
2026-05-09 VA "Legends" T & F Youth Invite 800m 2:55.97 3rd · 1st on team 113.7 -0.033
2026-05-09 VA "Legends" T & F Youth Invite 1500m 5:51.04 1st · 1st on team 117.2 -0.033
2026-05-03 Queen Harrison Track Classic - -Youth Section 800m 3:03.72 3rd · 1st on team 108.9 -0.033
2026-05-03 Queen Harrison Track Classic - -Youth Section 1500m 6:06.08 2nd · 1st on team 112.4 -0.033
2026-04-26 Virginia Pride Spring Kick-Off 1500m 5:46.82 3rd · 1st on team 119.1 -0.029 PR R SR RSR
2026-04-26 Virginia Pride Spring Kick-Off 800m 3:02.26 5th · 1st on team 110.2 -0.029
2026-04-26 Virginia Pride Spring Kick-Off 400m 1:31.6 24th · 2nd on team -0.029
2026-03-06 AAU Indoor National Championship 1500m 6:12.5 6th · 1st on team 110.4 -0.036
2026-01-31 BWSP Queens and Kings - Meet 3 800m 2:57.08 1st · 1st on team 114.0 -0.024
2026-01-31 BWSP Queens and Kings - Meet 3 1500m 5:50.92 1st · 1st on team 118.3 -0.024 PR R SR RSR
2026-01-18 The VA Showcase 800m 2:59.53 3rd · 1st on team 111.5 -0.036
2026-01-18 The VA Showcase 1500m 6:01.62 2nd · 1st on team 113.8 -0.036
2026-01-11 Lighting Track Classic 1500m 6:19.36 3rd · 1st on team 108.4 -0.036
2026-01-11 Lighting Track Classic 800m 3:11.4 3rd · 1st on team 104.6 -0.036
2026-01-03 BWSP Queens and Kings - Meet 1 400m 1:23.19 13th · 1st on team -0.024 SR
2026-01-03 BWSP Queens and Kings - Meet 1 1500m 5:56.5 1st · 1st on team 116.5 -0.024 PR R SR RSR
2025-12-21 Grant Holloway Invite 1500m 6:09.87 1st · 1st on team 111.1 -0.036
2025-12-21 Grant Holloway Invite 800m 3:12.69 1st · 1st on team 104.0 -0.036
2025-12-21 Grant Holloway Invite 60m 10.25 23rd · 1st on team -0.036 ★PR SR
2025-12-06 Coach Miami Presents the Virginia Beast Invitational 800m 3:07.69 1st · 1st on team 106.8 -0.036
2025-12-06 Coach Miami Presents the Virginia Beast Invitational 1500m 6:09.27 1st · 1st on team 111.3 -0.036
2025-08-02 AAU Junior Olympic Games 800m 2:55.05 11th · 1st on team 114.3 -0.032 PR R SR RSR
2025-08-02 AAU Junior Olympic Games 1500m 5:56.55 8th · 1st on team 115.2 -0.032 PR R SR RSR

2025 TF 104.7

Superior Track & Field (VA) · Grade 7

Date Meet Event Result Place Rating Difficulty PR/SR Flags
2025-07-12 Cannonball Cooper Invite 100m 17.5 17th · 2nd on team -0.027 ★PR SR
2025-07-12 Cannonball Cooper Invite 1500m 6:05.26 1st · 1st on team 113.4 -0.027 PR R SR RSR
2025-06-25 AAU Track & Field Region 5 Qualifier 800m 3:03.34 1st · 1st on team 109.1 -0.034
2025-06-25 AAU Track & Field Region 5 Qualifier 1500m 6:21.63 1st · 1st on team 107.7 -0.034
2025-06-14 AAU Virginia District Qualifier (Southern) 1500m 6:24.5 1st · 1st on team 106.0 -0.041
2025-06-14 AAU Virginia District Qualifier (Southern) 800m 2:57.25 2nd · 1st on team 112.0 -0.041 PR SR
2025-05-31 Va Beach Flames Invite 400m 1:27.55 6th · 1st on team -0.023
2025-05-31 Va Beach Flames Invite 1500m 6:24.61 1st · 1st on team 108.5 -0.023
2025-05-31 Va Beach Flames Invite 800m 3:16.44 1st · 1st on team 103.4 -0.023
2025-05-25 HR Hurricanes CAT 5 Invite 1500m 6:14.2 1st · 1st on team 109.5 -0.035
2025-05-25 HR Hurricanes CAT 5 Invite 400m 1:21 2nd · 1st on team -0.035 ★PR SR
2025-05-25 HR Hurricanes CAT 5 Invite 800m 3:07.26 1st · 1st on team 106.5 -0.035 PR SR
2025-05-10 Legends Invitational hosted by Eastend Lightning 1500m 6:14.38 1st · 1st on team 110.2 -0.030
2025-05-10 Legends Invitational hosted by Eastend Lightning 400m 1:24.1 5th · 1st on team -0.030
2025-05-10 Legends Invitational hosted by Eastend Lightning 800m 3:20.97 1st · 1st on team 99.9 -0.030
2025-05-04 Queen Harrison Youth Invite 800m 3:13.46 1st · 1st on team 103.5 -0.033
2025-05-04 Queen Harrison Youth Invite 400m 1:21.78 2nd · 1st on team -0.033 PR SR
2025-05-04 Queen Harrison Youth Invite 1500m 6:06.84 1st · 1st on team 112.1 -0.033 PR R SR RSR
2025-04-27 TRACK 757 Classic 800m 3:14.8 1st · 1st on team 103.4 -0.029
2025-04-27 TRACK 757 Classic 400m 1:30.12 5th · 1st on team -0.029
2025-04-27 TRACK 757 Classic 1500m 6:50.43 1st · 1st on team 100.8 -0.029
2025-03-07 AAU Indoor National Championships 800m 3:26.28 12th · 2nd on team 97.1 -0.036
2025-03-07 AAU Indoor National Championships 400m 1:34.73 40th · 3rd on team -0.036
2025-03-07 AAU Indoor National Championships 1500m 6:38.38 6th · 2nd on team 103.1 -0.036
2025-03-02 PVA Invitational 60m 10.84 11th · 2nd on team -0.039
2025-03-02 PVA Invitational 800m 3:07.32 1st · 1st on team 107.7 -0.039 PR R SR RSR
2025-03-02 PVA Invitational 60m 10.42 6th · 1st on team -0.039 PR SR
2025-03-02 PVA Invitational 1500m 6:20.42 1st · 1st on team 108.6 -0.039 PR R SR RSR
2025-02-22 BWSP Queens and Kings Championships 400m 1:31.69 5th · 1st on team -0.014
2025-02-22 BWSP Queens and Kings Championships 800m 3:23.44 2nd · 1st on team 100.3 -0.014
2025-02-22 BWSP Queens and Kings Championships 55m 9.83 11th · 3rd on team -0.014
2025-02-16 HRH Winter Storm Classic 400m 1:33.67 6th · 1st on team -0.014
2025-02-16 HRH Winter Storm Classic 800m 3:19.09 1st · 1st on team 102.5 -0.014 PR R SR RSR
2025-02-16 HRH Winter Storm Classic 55m 9.95 12th · 1st on team -0.014
2025-02-01 BWSP Queens and Kings - Meet 3 55m 10.05 10th · 2nd on team -0.014
2025-02-01 BWSP Queens and Kings - Meet 3 55m 9.96 6th · 1st on team -0.014
2025-02-01 BWSP Queens and Kings - Meet 3 800m 3:30.91 1st · 1st on team 96.8 -0.014
2025-02-01 BWSP Queens and Kings - Meet 3 400m 1:29.93 3rd · 1st on team -0.014
2025-01-04 BWSP Queens and Kings - Meet 1 55m 9.94 7th · 2nd on team -0.024 PR SR
2025-01-04 BWSP Queens and Kings - Meet 1 55m 9.78 6th · 1st on team -0.024 ★PR SR
2025-01-04 BWSP Queens and Kings - Meet 1 800m 3:24.54 1st · 1st on team 98.8 -0.024 PR R SR RSR
2025-01-04 BWSP Queens and Kings - Meet 1 400m 1:29.95 3rd · 1st on team -0.024
2024-12-15 VB Oceanfront Invitational 800m 3:41.01 1st · 1st on team 90.8 -0.036 PR R SR RSR
2024-12-15 VB Oceanfront Invitational 60m 10.92 6th · 3rd on team -0.036 PR SR
2024-12-15 VB Oceanfront Invitational 400m 1:29.24 1st · 1st on team -0.036 PR SR
2024-12-15 VB Oceanfront Invitational 60m 10.65 5th · 2nd on team -0.036 PR SR

2024 TF

Superior Track & Field (VA) · Grade 6

Date Meet Event Result Place Rating Difficulty PR/SR Flags
2024-07-13 Cannonball Cooper Invite 100m 18.46 21st · 1st on team -0.024
2024-07-13 Cannonball Cooper Invite 50m 8.48 8th · 1st on team -0.024 ★PR SR
2024-06-22 Superior Elite Invitational 50m 8.64 6th · 1st on team -0.033 PR SR
2024-06-22 Superior Elite Invitational 400m 1:38.52 7th · 1st on team -0.033 PR SR
2024-06-22 Superior Elite Invitational 100m 19.75 11th · 2nd on team -0.033
2024-06-08 AAU Virginia South District Qualifier 200m 39.2 25th · 1st on team -0.029 ★PR SR
2024-06-08 AAU Virginia South District Qualifier 100m 18.44 27th · 1st on team -0.029
2024-05-26 HR Hurricanes CAT 5 Invite (CANCELED) (CANCELED) 200m 41.24 12th · 1st on team -0.019 PR SR
2024-05-26 HR Hurricanes CAT 5 Invite (CANCELED) (CANCELED) 100m 18.21 16th · 1st on team -0.019 PR SR
2024-05-11 2024 EE Lightning "Legends" Invite 100m 19.42 26th · 1st on team -0.043 PR SR
2024-05-11 2024 EE Lightning "Legends" Invite 50m 10.48 10th · 1st on team -0.043 PR SR
2024-05-05 Queen Harrison Invite 100m 21.55 19th · 1st on team -0.033
2024-05-05 Queen Harrison Invite 50m 10.79 16th · 1st on team -0.033 PR SR
2024-04-28 Virginia Pride Spring Kick - Off 100m 21.07 26th · 1st on team -0.034 PR SR